FNLU/LAD METAR and TAF weather

Enter ICAO airport designator
Station Type Date Time Source
FNLU METAR 2020/09/23 04:00 UTC NOAA

FNLU 230400Z 00000KT 8000 BKN020 22/20 Q1013 NOSIG


Station Type Date Time Source
FNLU Decoded METAR 2020/09/23 04:00 UTC NOAA

Luanda, Angola (FNLU) 08-51S 013-14E 70M
Sep 23, 2020 - 12:00 AM EDT / 2020.09.23 0400 UTC
Wind: Calm:0
Visibility: 4 mile(s):0
Sky conditions: mostly cloudy
Temperature: 71 F (22 C)
Dew Point: 68 F (20 C)
Relative Humidity: 88%
Pressure (altimeter): 29.91 in. Hg (1013 hPa)
ob: FNLU 230400Z 00000KT 8000 BKN020 22/20 Q1013 NOSIG
cycle: 4

Station Type Date Time Source
FNLU TAF 2020/09/22 18:56 UTC NOAA

TAF FNLU 221700Z 2218/2324 26010KT 9999 FEW020
TEMPO 2304/2308 15005KT 8000 SCT016 BKN040
TEMPO 2309/2313 6000 -RADZ

Example: see airport list